createdAt,value
2017-08-31T00:00:14.935Z,100172.30
2017-08-31T00:02:41.428Z,100170.96
2017-08-31T00:05:07.968Z,100172.42
2017-08-31T00:07:34.464Z,100167.17
2017-08-31T00:10:00.957Z,100169.39
2017-08-31T00:12:27.530Z,100166.52
2017-08-31T00:14:54.010Z,100146.88
2017-08-31T00:17:20.456Z,100163.18
2017-08-31T00:19:47.240Z,100162.66
2017-08-31T00:22:13.881Z,100160.91
2017-08-31T00:24:40.506Z,100167.70
2017-08-31T00:27:07.096Z,100164.87
2017-08-31T00:29:33.799Z,100165.39
2017-08-31T00:32:00.227Z,100167.91
2017-08-31T00:34:26.886Z,100164.09
2017-08-31T00:36:53.367Z,100168.48
2017-08-31T00:39:19.881Z,100155.63
2017-08-31T00:41:46.420Z,100150.92
2017-08-31T00:44:13.008Z,100154.97
2017-08-31T00:46:39.632Z,100150.52
2017-08-31T00:49:06.220Z,100148.48
2017-08-31T00:51:32.718Z,100159.09
2017-08-31T00:53:59.332Z,100153.61
2017-08-31T00:56:25.878Z,100150.44
2017-08-31T00:58:52.366Z,100152.60
2017-08-31T01:01:19.063Z,100157.79
2017-08-31T01:03:45.703Z,100152.34
2017-08-31T01:06:12.316Z,100148.35
2017-08-31T01:08:38.979Z,100148.47
2017-08-31T01:11:05.410Z,100149.70
2017-08-31T01:13:31.899Z,100149.81
2017-08-31T01:15:58.337Z,100146.71
2017-08-31T01:18:24.876Z,100152.69
2017-08-31T01:20:51.545Z,100149.88
2017-08-31T01:23:18.065Z,100146.16
2017-08-31T01:25:44.679Z,100148.61
2017-08-31T01:28:11.122Z,100151.48
2017-08-31T01:30:37.539Z,100146.29
2017-08-31T01:33:04.104Z,100148.82
2017-08-31T01:35:30.771Z,100145.86
2017-08-31T01:37:57.388Z,100141.59
2017-08-31T01:40:24.005Z,100140.06
2017-08-31T01:42:50.687Z,100132.82
2017-08-31T01:45:17.321Z,100138.27
2017-08-31T01:47:43.961Z,100136.22
2017-08-31T01:50:10.570Z,100138.30
2017-08-31T01:52:37.234Z,100136.75
2017-08-31T01:55:03.875Z,100130.12
2017-08-31T01:57:30.491Z,100117.92
2017-08-31T01:59:57.111Z,100124.70
2017-08-31T02:02:23.659Z,100122.12
2017-08-31T02:04:50.172Z,100128.77
2017-08-31T02:07:16.860Z,100132.63
2017-08-31T02:09:43.497Z,100128.63
2017-08-31T02:12:10.126Z,100133.85
2017-08-31T02:14:36.653Z,100133.95
2017-08-31T02:17:03.411Z,100136.05
2017-08-31T02:19:29.845Z,100139.33
2017-08-31T02:21:56.467Z,100134.74
2017-08-31T02:24:23.082Z,100138.14
2017-08-31T02:26:49.624Z,100137.35
2017-08-31T02:29:16.141Z,100131.76
2017-08-31T02:31:42.685Z,100131.16
2017-08-31T02:34:08.995Z,100129.00
2017-08-31T02:36:35.546Z,100126.80
2017-08-31T02:39:02.110Z,100130.95
2017-08-31T02:41:28.770Z,100133.44
2017-08-31T02:43:55.203Z,100137.47
2017-08-31T02:46:21.840Z,100139.81
2017-08-31T02:48:48.453Z,100141.66
2017-08-31T02:51:14.926Z,100143.91
2017-08-31T02:53:41.345Z,100148.56
2017-08-31T02:56:07.781Z,100149.42
2017-08-31T02:58:34.274Z,100143.53
2017-08-31T03:01:01.055Z,100149.52
2017-08-31T03:03:27.652Z,100150.48
2017-08-31T03:05:54.332Z,100146.05
2017-08-31T03:08:20.911Z,100151.22
2017-08-31T03:10:47.608Z,100150.07
2017-08-31T03:13:14.098Z,100151.94
2017-08-31T03:15:40.885Z,100146.86
2017-08-31T03:18:07.504Z,100148.13
2017-08-31T03:20:33.985Z,100142.23
2017-08-31T03:23:00.537Z,100146.48
2017-08-31T03:25:27.028Z,100143.49
2017-08-31T03:27:53.660Z,100153.49
2017-08-31T03:30:20.063Z,100155.65
2017-08-31T03:32:46.738Z,100151.23
2017-08-31T03:35:13.349Z,100154.85
2017-08-31T03:37:39.888Z,100157.56
2017-08-31T03:40:06.240Z,100159.30
2017-08-31T03:42:32.874Z,100158.31
2017-08-31T03:44:59.317Z,100155.28
2017-08-31T03:47:25.743Z,100160.88
2017-08-31T03:49:52.349Z,100154.34
2017-08-31T03:52:18.867Z,100163.00
2017-08-31T03:54:45.311Z,100166.45
2017-08-31T03:57:11.751Z,100163.58
2017-08-31T03:59:38.527Z,100174.65
2017-08-31T04:02:05.006Z,100167.59
2017-08-31T04:04:31.395Z,100167.80
2017-08-31T04:06:58.032Z,100164.27
2017-08-31T04:09:24.630Z,100162.52
2017-08-31T04:11:51.271Z,100164.67
2017-08-31T04:14:17.745Z,100173.39
2017-08-31T04:16:44.178Z,100175.59
2017-08-31T04:19:10.608Z,100163.98
2017-08-31T04:21:37.095Z,100162.80
2017-08-31T04:24:03.539Z,100162.63
2017-08-31T04:26:29.981Z,100163.65
2017-08-31T04:28:56.492Z,100169.81
2017-08-31T04:31:22.976Z,100170.72
2017-08-31T04:33:49.618Z,100169.34
2017-08-31T04:36:16.245Z,100168.55
2017-08-31T04:38:42.738Z,100172.14
2017-08-31T04:41:09.205Z,100166.24
2017-08-31T04:43:35.509Z,100171.79
2017-08-31T04:46:01.809Z,100170.69
2017-08-31T04:48:28.126Z,100172.11
2017-08-31T04:50:54.517Z,100173.66
2017-08-31T04:53:20.824Z,100173.09
2017-08-31T04:55:47.144Z,100174.62
2017-08-31T04:58:13.508Z,100176.67
2017-08-31T05:00:39.794Z,100174.19
2017-08-31T05:03:06.113Z,100173.83
2017-08-31T05:05:32.470Z,100166.34
2017-08-31T05:07:58.795Z,100165.81
2017-08-31T05:10:25.112Z,100159.92
2017-08-31T05:12:51.471Z,100163.36
2017-08-31T05:15:17.770Z,100157.74
2017-08-31T05:17:44.095Z,100165.42
2017-08-31T05:20:10.444Z,100164.01
2017-08-31T05:22:36.749Z,100153.72
2017-08-31T05:25:03.068Z,100157.95
2017-08-31T05:27:29.435Z,100161.52
2017-08-31T05:29:55.725Z,100163.20
2017-08-31T05:32:22.034Z,100158.70
2017-08-31T05:34:48.394Z,100162.97
2017-08-31T05:37:14.708Z,100160.35
2017-08-31T05:39:41.013Z,100159.25
2017-08-31T05:42:07.379Z,100159.72
2017-08-31T05:44:33.693Z,100158.39
2017-08-31T05:46:59.991Z,100158.77
2017-08-31T05:49:26.326Z,100163.43
2017-08-31T05:51:52.628Z,100160.59
2017-08-31T05:54:18.931Z,100161.33
2017-08-31T05:56:45.305Z,100161.16
2017-08-31T05:59:11.599Z,100169.08
2017-08-31T06:01:37.906Z,100179.12
2017-08-31T06:04:04.284Z,100174.34
2017-08-31T06:06:30.615Z,100170.57
2017-08-31T06:08:56.934Z,100170.84
2017-08-31T06:11:23.293Z,100176.70
2017-08-31T06:13:49.589Z,100164.88
2017-08-31T06:16:15.900Z,100170.86
2017-08-31T06:18:42.272Z,100166.39
2017-08-31T06:21:08.590Z,100165.81
2017-08-31T06:23:34.894Z,100164.41
2017-08-31T06:26:01.253Z,100163.64
2017-08-31T06:28:27.578Z,100165.36
2017-08-31T06:30:53.880Z,100170.18
2017-08-31T06:33:20.259Z,100165.13
2017-08-31T06:35:46.611Z,100168.94
2017-08-31T06:38:12.933Z,100166.94
2017-08-31T06:40:39.294Z,100171.34
2017-08-31T06:43:05.625Z,100165.00
2017-08-31T06:45:31.951Z,100174.04
2017-08-31T06:47:58.317Z,100164.28
2017-08-31T06:50:24.640Z,100166.19
2017-08-31T06:52:50.937Z,100161.75
2017-08-31T06:55:17.304Z,100168.00
2017-08-31T06:57:43.623Z,100161.91
2017-08-31T07:00:10.004Z,100165.41
2017-08-31T07:02:36.431Z,100171.86
2017-08-31T07:05:02.813Z,100163.34
2017-08-31T07:07:29.200Z,100170.86
2017-08-31T07:09:55.636Z,100171.17
2017-08-31T07:12:22.032Z,100175.09
2017-08-31T07:14:48.406Z,100167.28
2017-08-31T07:17:14.839Z,100164.80
2017-08-31T07:19:41.224Z,100171.05
2017-08-31T07:22:07.514Z,100168.67
2017-08-31T07:24:33.878Z,100161.77
2017-08-31T07:27:00.264Z,100164.70
2017-08-31T07:29:26.653Z,100165.19
2017-08-31T07:31:53.085Z,100161.70
2017-08-31T07:34:19.453Z,100163.64
2017-08-31T07:36:45.766Z,100163.52
2017-08-31T07:39:12.224Z,100156.03
2017-08-31T07:41:38.604Z,100159.90
2017-08-31T07:44:04.916Z,100154.38
2017-08-31T07:46:31.277Z,100148.34
2017-08-31T07:48:57.690Z,100155.98
2017-08-31T07:51:24.046Z,100151.70
2017-08-31T07:53:50.497Z,100153.45
2017-08-31T07:56:16.893Z,100153.55
2017-08-31T07:58:43.245Z,100155.05
2017-08-31T08:01:09.672Z,100151.04
2017-08-31T08:03:36.052Z,100148.80
2017-08-31T08:06:02.407Z,100143.72
2017-08-31T08:08:30.828Z,100143.95
2017-08-31T08:10:57.206Z,100142.70
2017-08-31T08:13:23.575Z,100147.24
2017-08-31T08:15:50.038Z,100140.04
2017-08-31T08:18:16.413Z,100140.64
2017-08-31T08:20:42.782Z,100133.98
2017-08-31T08:23:09.198Z,100129.10
2017-08-31T08:25:35.582Z,100130.98
2017-08-31T08:28:01.955Z,100128.81
2017-08-31T08:30:28.368Z,100130.08
2017-08-31T08:32:54.732Z,100122.37
2017-08-31T08:35:21.103Z,100125.01
2017-08-31T08:37:47.553Z,100130.70
2017-08-31T08:40:13.953Z,100119.93
2017-08-31T08:42:40.320Z,100125.08
2017-08-31T08:45:06.751Z,100121.16
2017-08-31T08:47:33.128Z,100120.92
2017-08-31T08:49:59.505Z,100113.57
2017-08-31T08:52:25.950Z,100117.41
2017-08-31T08:54:52.333Z,100115.73
2017-08-31T08:57:18.706Z,100111.66
2017-08-31T08:59:45.147Z,100110.46
2017-08-31T09:02:11.532Z,100106.37
2017-08-31T09:04:37.934Z,100108.31
2017-08-31T09:07:04.367Z,100105.42
2017-08-31T09:09:30.739Z,100108.17
2017-08-31T09:11:57.122Z,100108.13
2017-08-31T09:14:23.558Z,100096.34
2017-08-31T09:16:49.933Z,100098.27
2017-08-31T09:19:16.373Z,100096.12
2017-08-31T09:21:42.873Z,100098.70
2017-08-31T09:24:09.320Z,100094.98
2017-08-31T09:26:35.714Z,100084.07
2017-08-31T09:29:02.156Z,100082.83
2017-08-31T09:31:28.537Z,100084.40
2017-08-31T09:33:54.923Z,100083.00
2017-08-31T09:36:21.358Z,100079.56
2017-08-31T09:38:47.742Z,100078.25
2017-08-31T09:41:14.105Z,100080.85
2017-08-31T09:43:40.523Z,100076.02
2017-08-31T09:46:06.904Z,100072.62
2017-08-31T09:48:33.287Z,100071.09
2017-08-31T09:50:59.724Z,100068.84
2017-08-31T09:53:26.113Z,100069.12
2017-08-31T09:55:52.504Z,100056.95
2017-08-31T09:58:18.952Z,100059.49
2017-08-31T10:00:45.339Z,100053.53
2017-08-31T10:03:11.716Z,100049.52
2017-08-31T10:05:38.201Z,100048.47
2017-08-31T10:08:04.571Z,100040.05
2017-08-31T10:10:30.972Z,100041.84
2017-08-31T10:12:57.433Z,100038.02
2017-08-31T10:15:23.821Z,100040.03
2017-08-31T10:17:50.213Z,100035.94
2017-08-31T10:20:16.659Z,100033.33
2017-08-31T10:22:43.034Z,100028.61
2017-08-31T10:25:09.405Z,100022.38
2017-08-31T10:27:35.829Z,100026.63
2017-08-31T10:30:02.221Z,100025.22
2017-08-31T10:32:28.601Z,100026.05
2017-08-31T10:34:55.023Z,100026.86
2017-08-31T10:37:21.397Z,100018.81
2017-08-31T10:39:47.759Z,100021.42
2017-08-31T10:42:14.193Z,100021.42
2017-08-31T10:44:40.571Z,100025.03
2017-08-31T10:47:06.961Z,100024.11
2017-08-31T10:49:33.400Z,100020.72
2017-08-31T10:51:59.769Z,100015.12
2017-08-31T10:54:26.161Z,100010.28
2017-08-31T10:56:52.605Z,100013.83
2017-08-31T10:59:18.974Z,100012.72
2017-08-31T11:01:45.353Z,100000.77
2017-08-31T11:04:11.774Z,99999.98
2017-08-31T11:06:38.133Z,99997.16
2017-08-31T11:09:04.492Z,99992.68
2017-08-31T11:11:30.909Z,99988.75
2017-08-31T11:13:57.286Z,99983.27
2017-08-31T11:16:23.684Z,99980.60
2017-08-31T11:18:50.136Z,99980.44
2017-08-31T11:21:16.519Z,99978.91
2017-08-31T11:23:42.883Z,99977.06
2017-08-31T11:26:09.324Z,99972.03
2017-08-31T11:28:35.767Z,99973.25
2017-08-31T11:31:02.221Z,99968.32
2017-08-31T11:33:28.768Z,99974.61
2017-08-31T11:35:55.212Z,99960.44
2017-08-31T11:38:21.465Z,99961.84
2017-08-31T11:40:47.882Z,99963.34
2017-08-31T11:43:14.257Z,99962.43
2017-08-31T11:45:40.638Z,99960.51
2017-08-31T11:48:07.061Z,99954.80
2017-08-31T11:50:33.425Z,99956.80
2017-08-31T11:52:59.807Z,99948.38
2017-08-31T11:55:26.273Z,99937.15
2017-08-31T11:57:52.649Z,99936.08
2017-08-31T12:00:19.033Z,99934.33
2017-08-31T12:02:45.497Z,99931.11
2017-08-31T12:05:11.876Z,99930.24
2017-08-31T12:07:38.253Z,99916.80
2017-08-31T12:10:04.733Z,99923.62
2017-08-31T12:12:31.110Z,99914.08
2017-08-31T12:14:57.477Z,99912.78
2017-08-31T12:17:23.901Z,99909.70
2017-08-31T12:19:50.287Z,99904.60
2017-08-31T12:22:16.676Z,99889.61
2017-08-31T12:24:43.090Z,99907.98
2017-08-31T12:27:09.465Z,99897.98
2017-08-31T12:29:35.846Z,99906.47
2017-08-31T12:32:02.289Z,99902.11
2017-08-31T12:34:28.693Z,99894.06
2017-08-31T12:36:55.075Z,99885.75
2017-08-31T12:39:21.493Z,99886.53
2017-08-31T12:41:47.880Z,99876.57
2017-08-31T12:44:14.271Z,99881.16
2017-08-31T12:46:40.713Z,99872.48
2017-08-31T12:49:07.084Z,99876.22
2017-08-31T12:51:33.453Z,99875.08
2017-08-31T12:53:59.885Z,99870.08
2017-08-31T12:56:26.256Z,99878.31
2017-08-31T12:58:52.633Z,99872.70
2017-08-31T13:01:19.049Z,99874.14
2017-08-31T13:03:45.490Z,99889.38
2017-08-31T13:06:11.856Z,99872.81
2017-08-31T13:08:38.296Z,99874.69
2017-08-31T13:11:04.663Z,99873.16
2017-08-31T13:13:31.051Z,99864.76
2017-08-31T13:15:57.494Z,99871.29
2017-08-31T13:18:23.856Z,99873.29
2017-08-31T13:20:50.236Z,99877.03
2017-08-31T13:23:16.661Z,99863.42
2017-08-31T13:25:43.043Z,99868.60
2017-08-31T13:28:09.423Z,99867.20
2017-08-31T13:30:35.863Z,99865.76
2017-08-31T13:33:02.169Z,99877.47
2017-08-31T13:35:28.487Z,99868.86
2017-08-31T13:37:54.847Z,99860.95
2017-08-31T13:40:21.159Z,99856.91
2017-08-31T13:42:47.476Z,99862.79
2017-08-31T13:45:13.838Z,99863.67
2017-08-31T13:47:40.156Z,99858.87
2017-08-31T13:50:06.450Z,99850.73
2017-08-31T13:52:32.799Z,99841.27
2017-08-31T13:54:59.090Z,99842.86
2017-08-31T13:57:25.405Z,99835.93
2017-08-31T13:59:51.768Z,99838.08
2017-08-31T14:02:18.073Z,99841.08
2017-08-31T14:04:44.400Z,99841.30
2017-08-31T14:07:10.769Z,99837.08
2017-08-31T14:09:37.076Z,99834.53
2017-08-31T14:12:03.380Z,99837.28
2017-08-31T14:14:29.745Z,99839.68
2017-08-31T14:16:56.059Z,99835.71
2017-08-31T14:19:22.357Z,99833.00
2017-08-31T14:21:48.736Z,99823.91
2017-08-31T14:24:15.048Z,99821.27
2017-08-31T14:26:41.364Z,99822.14
2017-08-31T14:29:07.736Z,99817.86
2017-08-31T14:31:34.051Z,99813.40
2017-08-31T14:34:00.361Z,99815.98
2017-08-31T14:36:26.730Z,99811.99
2017-08-31T14:38:53.037Z,99810.00
2017-08-31T14:41:19.352Z,99812.05
2017-08-31T14:43:45.726Z,99819.16
2017-08-31T14:46:12.038Z,99810.35
2017-08-31T14:48:38.355Z,99812.48
2017-08-31T14:51:04.729Z,99813.75
2017-08-31T14:53:31.062Z,99810.92
2017-08-31T14:55:57.371Z,99813.45
2017-08-31T14:58:23.725Z,99808.97
2017-08-31T15:00:50.033Z,99804.39
2017-08-31T15:03:16.402Z,99800.16
2017-08-31T15:05:42.754Z,99799.89
2017-08-31T15:08:09.071Z,99794.48
2017-08-31T15:10:35.362Z,99794.66
2017-08-31T15:13:01.709Z,99795.66
2017-08-31T15:15:28.031Z,99795.45
2017-08-31T15:17:54.351Z,99792.63
2017-08-31T15:20:20.729Z,99788.89
2017-08-31T15:22:47.062Z,99793.14
2017-08-31T15:25:13.355Z,99796.11
2017-08-31T15:27:39.721Z,99792.25
2017-08-31T15:30:06.036Z,99786.48
2017-08-31T15:32:32.328Z,99784.72
2017-08-31T15:34:58.660Z,99782.22
2017-08-31T15:37:24.960Z,99773.20
2017-08-31T15:39:51.274Z,99776.53
2017-08-31T15:42:17.609Z,99771.59
2017-08-31T15:44:43.950Z,99771.20
2017-08-31T15:47:10.369Z,99772.22
2017-08-31T15:49:36.707Z,99770.13
2017-08-31T15:52:02.999Z,99761.69
2017-08-31T15:54:29.291Z,99770.16
2017-08-31T15:56:55.620Z,99772.59
2017-08-31T15:59:21.920Z,99770.91
2017-08-31T16:01:48.220Z,99770.95
2017-08-31T16:04:14.588Z,99769.51
2017-08-31T16:06:40.914Z,99773.09
2017-08-31T16:09:07.228Z,99773.50
2017-08-31T16:11:33.593Z,99767.44
2017-08-31T16:13:59.880Z,99773.28
2017-08-31T16:16:26.174Z,99770.76
2017-08-31T16:18:52.670Z,99768.41
2017-08-31T16:21:18.965Z,99772.22
2017-08-31T16:23:45.277Z,99780.92
2017-08-31T16:26:11.642Z,99783.58
2017-08-31T16:28:37.943Z,99781.00
2017-08-31T16:31:04.246Z,99783.83
2017-08-31T16:33:30.593Z,99790.31
2017-08-31T16:35:56.883Z,99795.59
2017-08-31T16:38:23.191Z,99784.05
2017-08-31T16:40:49.745Z,99799.09
2017-08-31T16:43:16.042Z,99800.67
2017-08-31T16:45:42.353Z,99802.63
2017-08-31T16:48:08.708Z,99798.08
2017-08-31T16:50:35.067Z,99801.44
2017-08-31T16:53:01.693Z,99803.01
2017-08-31T16:55:28.307Z,99807.00
2017-08-31T16:57:54.775Z,99804.86
2017-08-31T17:00:21.417Z,99805.73
2017-08-31T17:02:48.007Z,99817.91
2017-08-31T17:05:14.483Z,99812.70
2017-08-31T17:07:40.926Z,99810.98
2017-08-31T17:10:07.333Z,99820.45
2017-08-31T17:12:33.999Z,99822.38
2017-08-31T17:15:00.431Z,99817.87
2017-08-31T17:17:27.008Z,99823.39
2017-08-31T17:19:53.703Z,99823.40
2017-08-31T17:22:20.136Z,99820.23
2017-08-31T17:24:46.738Z,99824.55
2017-08-31T17:27:13.415Z,99820.70
2017-08-31T17:29:40.018Z,99829.61
2017-08-31T17:32:06.540Z,99836.34
2017-08-31T17:34:32.917Z,99840.80
2017-08-31T17:36:59.351Z,99841.11
2017-08-31T17:39:25.987Z,99841.69
2017-08-31T17:41:52.265Z,99844.28
2017-08-31T17:44:18.723Z,99843.31
2017-08-31T17:46:45.087Z,99850.27
2017-08-31T17:49:11.527Z,99849.33
2017-08-31T17:51:38.155Z,99850.06
2017-08-31T17:54:04.743Z,99847.53
2017-08-31T17:56:31.209Z,99851.80
2017-08-31T17:58:57.526Z,99856.02
2017-08-31T18:01:23.868Z,99861.03
2017-08-31T18:03:50.408Z,99861.60
2017-08-31T18:06:16.753Z,99859.98
2017-08-31T18:08:43.181Z,99867.48
2017-08-31T18:11:09.620Z,99871.28
2017-08-31T18:13:36.103Z,99877.12
2017-08-31T18:16:02.668Z,99882.16
2017-08-31T18:18:28.956Z,99882.16
2017-08-31T18:20:55.345Z,99881.17
2017-08-31T18:23:21.991Z,99885.27
2017-08-31T18:25:48.616Z,99880.89
2017-08-31T18:28:15.109Z,99887.82
2017-08-31T18:30:41.675Z,99890.34
2017-08-31T18:33:08.133Z,99886.39
2017-08-31T18:35:34.638Z,99881.66
2017-08-31T18:38:00.975Z,99883.41
2017-08-31T18:40:27.614Z,99885.45
2017-08-31T18:42:53.905Z,99880.16
2017-08-31T18:45:20.327Z,99891.28
2017-08-31T18:47:46.797Z,99889.61
2017-08-31T18:50:13.171Z,99895.09
2017-08-31T18:52:39.597Z,99897.13
2017-08-31T18:55:06.093Z,99892.63
2017-08-31T18:57:32.638Z,99891.81
2017-08-31T18:59:59.097Z,99888.52
2017-08-31T19:02:25.538Z,99886.77
2017-08-31T19:04:51.978Z,99885.52
2017-08-31T19:07:18.318Z,99884.92
2017-08-31T19:09:44.921Z,99888.85
2017-08-31T19:12:11.342Z,99886.12
2017-08-31T19:14:37.880Z,99891.21
2017-08-31T19:17:04.186Z,99893.48
2017-08-31T19:19:30.762Z,99887.63
2017-08-31T19:21:57.286Z,99890.06
2017-08-31T19:24:23.986Z,99887.34
2017-08-31T19:26:50.544Z,99887.38
2017-08-31T19:29:16.921Z,99888.20
2017-08-31T19:31:43.347Z,99888.44
2017-08-31T19:34:09.787Z,99888.43
2017-08-31T19:36:36.355Z,99884.88
2017-08-31T19:39:02.886Z,99892.33
2017-08-31T19:41:29.466Z,99894.03
2017-08-31T19:43:55.989Z,99898.78
2017-08-31T19:46:22.430Z,99888.77
2017-08-31T19:48:48.946Z,99892.95
2017-08-31T19:51:15.486Z,99887.41
2017-08-31T19:53:42.071Z,99898.58
2017-08-31T19:56:08.490Z,99890.70
2017-08-31T19:58:34.854Z,99892.16
2017-08-31T20:01:01.332Z,99902.75
2017-08-31T20:03:28.011Z,99899.05
2017-08-31T20:05:54.541Z,99901.16
2017-08-31T20:08:20.958Z,99898.77
2017-08-31T20:10:47.411Z,99900.66
2017-08-31T20:13:13.778Z,99895.46
2017-08-31T20:15:40.279Z,99888.50
2017-08-31T20:18:06.955Z,99899.92
2017-08-31T20:20:33.492Z,99899.39
2017-08-31T20:23:00.182Z,99897.02
2017-08-31T20:25:26.827Z,99899.20
2017-08-31T20:27:53.169Z,99901.84
2017-08-31T20:30:19.464Z,99901.90
2017-08-31T20:32:45.924Z,99902.98
2017-08-31T20:35:12.521Z,99897.17
2017-08-31T20:37:39.198Z,99898.36
2017-08-31T20:40:05.831Z,99892.77
2017-08-31T20:42:32.447Z,99889.45
2017-08-31T20:44:59.112Z,99887.02
2017-08-31T20:47:25.729Z,99893.38
2017-08-31T20:49:52.347Z,99877.95
2017-08-31T20:52:18.824Z,99880.52
2017-08-31T20:54:45.240Z,99881.16
2017-08-31T20:57:11.647Z,99877.05
2017-08-31T20:59:38.111Z,99876.79
2017-08-31T21:02:05.328Z,99874.62
2017-08-31T21:04:31.779Z,99872.72
2017-08-31T21:06:58.111Z,99868.19
2017-08-31T21:09:24.349Z,99869.91
2017-08-31T21:11:50.656Z,99868.99
2017-08-31T21:14:16.901Z,99870.05
2017-08-31T21:16:43.146Z,99866.44
2017-08-31T21:19:09.477Z,99866.70
2017-08-31T21:21:35.726Z,99866.77
2017-08-31T21:24:01.969Z,99863.05
2017-08-31T21:26:28.261Z,99855.13
2017-08-31T21:28:54.491Z,99851.50
2017-08-31T21:31:20.913Z,99853.46
2017-08-31T21:33:47.214Z,99851.00
2017-08-31T21:36:13.452Z,99848.14
2017-08-31T21:38:39.687Z,99849.18
2017-08-31T21:41:05.988Z,99845.39
2017-08-31T21:43:32.225Z,99851.72
2017-08-31T21:45:58.470Z,99854.42
2017-08-31T21:48:24.770Z,99847.17
2017-08-31T21:50:51.035Z,99840.80
2017-08-31T21:53:17.270Z,99839.75
2017-08-31T21:55:43.555Z,99838.98
2017-08-31T21:58:09.808Z,99840.72
2017-08-31T22:00:36.063Z,99841.36
2017-08-31T22:03:02.397Z,99843.63
2017-08-31T22:05:28.740Z,99840.61
2017-08-31T22:07:55.009Z,99845.51
2017-08-31T22:10:21.344Z,99838.52
2017-08-31T22:12:47.610Z,99833.30
2017-08-31T22:15:13.864Z,99835.19
2017-08-31T22:17:40.176Z,99834.58
2017-08-31T22:20:06.439Z,99842.09
2017-08-31T22:22:32.698Z,99843.17
2017-08-31T22:24:59.020Z,99846.70
2017-08-31T22:27:25.310Z,99838.76
2017-08-31T22:29:51.575Z,99834.74
2017-08-31T22:32:17.904Z,99835.66
2017-08-31T22:34:44.194Z,99833.86
2017-08-31T22:37:10.450Z,99829.41
2017-08-31T22:39:36.769Z,99825.89
2017-08-31T22:42:03.032Z,99828.75
2017-08-31T22:44:29.318Z,99832.78
2017-08-31T22:46:55.913Z,99829.47
2017-08-31T22:49:22.204Z,99828.96
2017-08-31T22:51:48.728Z,99829.62
2017-08-31T22:54:15.371Z,99824.09
2017-08-31T22:56:41.980Z,99833.36
2017-08-31T22:59:08.647Z,99829.44
2017-08-31T23:01:35.287Z,99831.48
2017-08-31T23:04:01.906Z,99828.53
2017-08-31T23:06:28.561Z,99830.45
2017-08-31T23:08:54.989Z,99831.98
2017-08-31T23:11:21.485Z,99833.11
2017-08-31T23:13:47.929Z,99829.78
2017-08-31T23:16:14.703Z,99831.27
2017-08-31T23:18:41.307Z,99820.81
2017-08-31T23:21:07.770Z,99823.26
2017-08-31T23:23:34.363Z,99818.59
2017-08-31T23:26:01.052Z,99816.03
2017-08-31T23:28:27.483Z,99813.84
2017-08-31T23:30:53.921Z,99822.21
2017-08-31T23:33:20.534Z,99815.19
2017-08-31T23:35:47.019Z,99816.95
2017-08-31T23:38:13.570Z,99815.05
2017-08-31T23:40:40.266Z,99819.03
2017-08-31T23:43:06.878Z,99807.98
2017-08-31T23:45:33.498Z,99809.56
2017-08-31T23:48:00.182Z,99812.30
2017-08-31T23:50:26.608Z,99807.52
2017-08-31T23:52:53.250Z,99809.51
2017-08-31T23:55:19.684Z,99802.09
2017-08-31T23:57:46.302Z,99796.81
